createdAt,value
2019-01-16T08:26:42.354Z,803
2019-01-16T08:26:58.270Z,1250
2019-01-16T08:27:14.163Z,1503
2019-01-16T08:27:30.090Z,1120
2019-01-16T08:27:46.026Z,917
2019-01-16T08:28:02.021Z,820
2019-01-16T08:28:17.966Z,777
2019-01-16T08:28:33.859Z,596
2019-01-16T08:28:49.866Z,558
2019-01-16T08:29:05.803Z,606
2019-01-16T08:29:21.713Z,535
2019-01-16T08:29:37.604Z,508
2019-01-16T08:29:53.519Z,586
2019-01-16T08:30:09.391Z,528
2019-01-16T08:30:25.253Z,537
2019-01-16T08:30:41.147Z,509
2019-01-16T08:30:57.037Z,582
2019-01-16T08:31:12.966Z,450
2019-01-16T08:31:28.902Z,569
2019-01-16T08:31:44.811Z,523
2019-01-16T08:32:00.725Z,493
2019-01-16T08:32:16.623Z,568
2019-01-16T08:32:32.555Z,515
2019-01-16T08:32:48.495Z,538
2019-01-16T08:33:04.413Z,550
2019-01-16T08:33:20.288Z,511
2019-01-16T08:33:36.161Z,583
2019-01-16T08:33:52.059Z,474
2019-01-16T08:34:08.007Z,612
2019-01-16T08:34:23.954Z,507
2019-01-16T08:34:39.857Z,550
2019-01-16T08:34:55.767Z,538
2019-01-16T08:35:11.694Z,534
2019-01-16T08:35:27.585Z,530
2019-01-16T08:35:43.471Z,506
2019-01-16T08:35:59.369Z,542
2019-01-16T08:36:15.320Z,554
2019-01-16T08:36:31.216Z,563
2019-01-16T08:36:47.102Z,534
2019-01-16T08:37:03.060Z,623
2019-01-16T08:37:18.992Z,508
2019-01-16T08:37:34.871Z,678
2019-01-16T08:37:50.804Z,622
2019-01-16T08:38:06.692Z,622
2019-01-16T08:38:22.589Z,542
2019-01-16T08:38:38.479Z,596
2019-01-16T08:38:54.392Z,578
2019-01-16T08:39:10.299Z,571
2019-01-16T08:39:26.224Z,554
2019-01-16T08:39:42.097Z,557
2019-01-16T08:39:57.969Z,574
2019-01-16T08:40:13.870Z,526
2019-01-16T08:40:29.782Z,509
2019-01-16T08:40:45.716Z,489
2019-01-16T08:41:01.615Z,529
2019-01-16T08:41:17.521Z,533
2019-01-16T08:41:33.438Z,533
2019-01-16T08:41:49.360Z,521
2019-01-16T08:42:05.260Z,542
2019-01-16T08:42:21.159Z,570
2019-01-16T08:42:37.084Z,501
2019-01-16T08:42:52.982Z,481
2019-01-16T08:43:08.862Z,662
2019-01-16T08:43:24.797Z,520
2019-01-16T08:43:40.699Z,496
2019-01-16T08:43:56.600Z,576
2019-01-16T08:44:13.792Z,490
2019-01-16T08:44:30.258Z,515
2019-01-16T08:44:46.202Z,505
2019-01-16T08:45:02.119Z,458
2019-01-16T08:45:18.017Z,472
2019-01-16T08:45:33.949Z,577
2019-01-16T08:45:49.875Z,538
2019-01-16T08:46:05.805Z,529
2019-01-16T08:46:21.716Z,508
2019-01-16T08:46:37.671Z,549
2019-01-16T08:46:53.578Z,547
2019-01-16T08:47:09.461Z,475
2019-01-16T08:47:25.375Z,520
2019-01-16T08:47:41.263Z,461
2019-01-16T08:47:57.222Z,518
2019-01-16T08:48:13.139Z,518
2019-01-16T08:48:29.044Z,577
2019-01-16T08:48:44.980Z,466
2019-01-16T08:49:00.906Z,466
2019-01-16T08:49:16.797Z,466
2019-01-16T08:49:32.731Z,583
2019-01-16T08:49:48.620Z,554
2019-01-16T08:50:04.537Z,497
2019-01-16T08:50:20.425Z,534
2019-01-16T08:50:36.410Z,524
2019-01-16T08:50:52.325Z,468
2019-01-16T08:51:08.269Z,412
2019-01-16T08:51:24.154Z,667
2019-01-16T08:51:40.067Z,506
2019-01-16T08:51:55.951Z,630
2019-01-16T08:52:11.858Z,567
2019-01-16T08:52:27.783Z,511
2019-01-16T08:52:43.826Z,515
2019-01-16T08:52:59.717Z,544
2019-01-16T08:53:15.605Z,544
2019-01-16T08:53:31.506Z,565
2019-01-16T08:53:47.386Z,598
2019-01-16T08:54:03.266Z,627
2019-01-16T08:54:19.205Z,455
2019-01-16T08:54:35.500Z,533
2019-01-16T08:54:51.436Z,589
2019-01-16T08:55:07.330Z,562
2019-01-16T08:55:23.199Z,545
2019-01-16T08:55:39.214Z,532
2019-01-16T08:55:55.138Z,536
2019-01-16T08:56:11.016Z,546
2019-01-16T08:56:26.911Z,539
2019-01-16T08:56:42.793Z,535
2019-01-16T08:56:58.730Z,530
2019-01-16T08:57:14.598Z,486
2019-01-16T08:57:30.484Z,485
2019-01-16T10:32:09.773Z,794
2019-01-16T10:32:25.676Z,1662
2019-01-16T10:32:41.594Z,1662
2019-01-16T10:32:57.593Z,1413
2019-01-16T10:33:13.509Z,1437
2019-01-16T10:33:29.447Z,1428
2019-01-16T10:33:45.447Z,1432
2019-01-16T10:34:01.358Z,1414
2019-01-16T10:34:17.252Z,1427
2019-01-16T10:34:33.148Z,1422
2019-01-16T10:34:49.028Z,1449
2019-01-16T10:35:04.942Z,1483
2019-01-16T10:35:20.857Z,1490
2019-01-16T10:35:36.870Z,1461
2019-01-16T10:35:52.775Z,1427
2019-01-16T10:36:08.715Z,1452
2019-01-16T10:36:24.607Z,1442
2019-01-16T10:36:40.511Z,1493
2019-01-16T10:36:56.415Z,1408
2019-01-16T10:37:12.321Z,1508
2019-01-16T10:37:28.242Z,1489
2019-01-16T10:37:44.149Z,1499
2019-01-16T10:38:00.029Z,1454
2019-01-16T10:38:15.969Z,1401
2019-01-16T10:38:31.891Z,1430
2019-01-16T10:38:47.798Z,1540
2019-01-16T10:39:03.718Z,1598
2019-01-16T10:39:19.679Z,1579
2019-01-16T10:39:35.587Z,1636
2019-01-16T10:39:51.491Z,1546
2019-01-16T10:40:07.396Z,1504
2019-01-16T10:40:23.304Z,1475
2019-01-16T10:40:39.202Z,1488
2019-01-16T10:40:55.095Z,1481
2019-01-16T10:41:11.025Z,1495
2019-01-16T10:41:26.947Z,1493
2019-01-16T10:41:42.874Z,1533
2019-01-16T10:41:58.768Z,1533
2019-01-16T10:42:14.721Z,1515
2019-01-16T10:42:30.690Z,1531
2019-01-16T10:42:46.596Z,1479
2019-01-16T10:43:02.515Z,1482
2019-01-16T10:43:18.436Z,1496
2019-01-16T10:43:34.337Z,1498
2019-01-16T10:43:50.256Z,1505
2019-01-16T10:44:06.150Z,1542
2019-01-16T10:44:22.037Z,1569
2019-01-16T10:44:37.945Z,1556
2019-01-16T10:44:53.875Z,1529
2019-01-16T10:45:09.846Z,1399
2019-01-16T10:45:25.852Z,1476
2019-01-16T10:45:41.788Z,1505
2019-01-16T10:45:57.704Z,1497
2019-01-16T10:46:13.644Z,1514
2019-01-16T10:46:29.541Z,1496
2019-01-16T10:46:45.444Z,1502
2019-01-16T10:47:01.361Z,1494
2019-01-16T10:47:17.287Z,1493
2019-01-16T10:47:33.162Z,1504
2019-01-16T10:47:49.120Z,1493
2019-01-16T10:48:05.070Z,1499
2019-01-16T10:48:21.009Z,1519
2019-01-16T10:48:36.931Z,1517
2019-01-16T10:48:52.856Z,1503
2019-01-16T10:49:08.778Z,1512
2019-01-16T10:49:24.676Z,1504
2019-01-16T10:49:40.572Z,1498
2019-01-16T10:49:56.485Z,1490
2019-01-16T10:50:12.379Z,1490
2019-01-16T10:50:28.309Z,1499
2019-01-16T10:50:44.239Z,1464
2019-01-16T10:51:03.281Z,1471
2019-01-16T10:51:21.018Z,1469
2019-01-16T10:51:37.000Z,1487
2019-01-16T10:51:52.932Z,1487
2019-01-16T10:52:08.831Z,1482
2019-01-16T10:52:24.781Z,1482
2019-01-16T10:52:40.683Z,1481
2019-01-16T10:52:56.578Z,1479
2019-01-16T10:53:12.513Z,1468
2019-01-16T10:53:28.429Z,1487
2019-01-16T10:53:44.343Z,1467
2019-01-16T10:54:00.255Z,1465
2019-01-16T10:54:16.227Z,1467
2019-01-16T10:54:32.165Z,1458
2019-01-16T10:54:48.056Z,1460
2019-01-16T10:55:03.962Z,1458
2019-01-16T10:55:19.888Z,1453
2019-01-16T10:55:35.814Z,1447
2019-01-16T10:55:51.805Z,1443
2019-01-16T10:56:07.797Z,1435
2019-01-16T10:56:23.702Z,1429
2019-01-16T10:56:39.670Z,1403
2019-01-16T10:56:55.660Z,1439
2019-01-16T10:57:11.584Z,1412
2019-01-16T10:57:27.592Z,1421
2019-01-16T10:57:43.520Z,1432
2019-01-16T10:57:59.422Z,1437
2019-01-16T10:58:15.325Z,1440
2019-01-16T10:58:31.303Z,1435
2019-01-16T10:58:47.190Z,1427
2019-01-16T10:59:03.092Z,1429
2019-01-16T10:59:19.004Z,1430
2019-01-16T10:59:34.999Z,1417
2019-01-16T10:59:50.914Z,1412
2019-01-16T11:00:06.861Z,1412
2019-01-16T11:00:22.751Z,1407
2019-01-16T11:00:38.713Z,1413
2019-01-16T11:00:54.604Z,1414
2019-01-16T11:01:10.529Z,1412
2019-01-16T11:01:26.429Z,1415
2019-01-16T11:01:42.385Z,1409
2019-01-16T11:01:58.287Z,1406
2019-01-16T11:02:14.196Z,1418
2019-01-16T11:02:30.111Z,1403
2019-01-16T11:02:46.022Z,1405
2019-01-16T11:03:01.913Z,1397
2019-01-16T11:03:17.810Z,1408
2019-01-16T11:03:33.783Z,1399
2019-01-16T11:03:49.732Z,1385
2019-01-16T11:04:05.610Z,1388
2019-01-16T11:04:21.548Z,1383
2019-01-16T11:04:37.482Z,1380
2019-01-16T11:04:53.382Z,1388
2019-01-16T11:05:09.328Z,1392
2019-01-16T11:05:25.222Z,1374
2019-01-16T11:05:41.141Z,1374
2019-01-16T11:05:57.053Z,1386
2019-01-16T11:06:13.061Z,1363
2019-01-16T11:06:28.973Z,1360
2019-01-16T11:06:44.906Z,1360
2019-01-16T11:07:00.938Z,1370
2019-01-16T11:07:16.861Z,1369
2019-01-16T11:07:32.772Z,1364
2019-01-16T11:07:48.667Z,1362
2019-01-16T11:08:04.593Z,1356
2019-01-16T11:08:20.493Z,1358
2019-01-16T11:08:36.416Z,1359
2019-01-16T11:08:52.347Z,1341
2019-01-16T11:09:08.262Z,1333
2019-01-16T11:09:24.193Z,1348
2019-01-16T11:09:40.110Z,1331
2019-01-16T11:09:56.025Z,1349
2019-01-16T11:10:11.947Z,1344
2019-01-16T11:10:27.844Z,1344
2019-01-16T11:10:43.758Z,1346
2019-01-16T11:10:59.680Z,1348
2019-01-16T11:11:16.155Z,1338
2019-01-16T11:11:32.151Z,1338
2019-01-16T11:11:48.068Z,1331
2019-01-16T11:12:03.973Z,1331
2019-01-16T11:12:19.930Z,1319
2019-01-16T11:12:35.848Z,1298
2019-01-16T11:12:51.791Z,1320
2019-01-16T11:13:07.706Z,1317
2019-01-16T11:13:23.621Z,1327
2019-01-16T11:13:39.615Z,1326
2019-01-16T11:13:55.506Z,1320
2019-01-16T11:14:11.395Z,1309
2019-01-16T11:14:27.300Z,1307
2019-01-16T11:14:43.185Z,1303
2019-01-16T11:14:59.222Z,1305
2019-01-16T11:15:15.131Z,1306
2019-01-16T11:33:47.247Z,520
2019-01-16T11:34:03.120Z,563
2019-01-16T11:34:19.035Z,627
2019-01-16T11:34:34.929Z,640
2019-01-16T11:34:50.827Z,834
2019-01-16T11:35:06.756Z,332
2019-01-16T11:35:22.713Z,739
2019-01-16T11:44:03.661Z,481
2019-01-16T11:44:19.600Z,496
2019-01-16T11:44:35.536Z,492
2019-01-16T11:44:51.483Z,439
2019-01-16T11:45:07.415Z,618
2019-01-16T11:45:23.325Z,649
2019-01-16T11:45:39.234Z,666
2019-01-16T11:45:55.145Z,685
2019-01-16T11:46:11.043Z,709
2019-01-16T11:46:27.007Z,694
2019-01-16T11:46:42.895Z,676
2019-01-16T11:46:58.885Z,669
2019-01-16T11:47:14.778Z,670
2019-01-16T11:47:30.735Z,669
2019-01-16T11:47:46.691Z,670
2019-01-16T11:48:02.579Z,675
2019-01-16T11:48:18.473Z,678
2019-01-16T11:48:34.389Z,684
2019-01-16T11:48:50.277Z,698
2019-01-16T11:49:06.211Z,706
2019-01-16T11:49:22.068Z,710
2019-01-16T11:49:37.961Z,714
2019-01-16T11:49:53.911Z,719
2019-01-16T11:50:09.796Z,723
2019-01-16T11:50:25.677Z,726
2019-01-16T11:50:41.659Z,730
2019-01-16T11:50:57.564Z,735
2019-01-16T11:51:18.667Z,740
2019-01-16T11:51:35.023Z,746
2019-01-16T11:51:50.904Z,751
2019-01-16T11:52:06.825Z,752
2019-01-16T11:52:22.761Z,757
2019-01-16T11:52:38.646Z,764
2019-01-16T11:52:54.611Z,763
2019-01-16T11:53:12.163Z,782
2019-01-16T11:53:28.194Z,810
2019-01-16T11:53:44.170Z,808
2019-01-16T11:54:00.140Z,811
2019-01-16T11:54:16.095Z,815
2019-01-16T11:54:32.014Z,823
2019-01-16T11:54:47.940Z,826
2019-01-16T11:55:03.819Z,826
2019-01-16T11:55:19.740Z,829
2019-01-16T11:55:35.672Z,833
2019-01-16T11:55:51.562Z,845
2019-01-16T11:56:07.417Z,867
2019-01-16T11:56:23.264Z,889
2019-01-16T11:56:39.127Z,938
2019-01-16T11:56:55.050Z,917
2019-01-16T11:57:10.925Z,913
2019-01-16T11:57:26.834Z,906
2019-01-16T11:57:42.727Z,904
2019-01-16T11:57:58.591Z,897
2019-01-16T11:58:14.459Z,900
2019-01-16T11:58:30.324Z,901
2019-01-16T11:58:46.240Z,907
2019-01-16T11:59:02.138Z,907
2019-01-16T11:59:18.015Z,911
2019-01-16T11:59:33.879Z,907
2019-01-16T11:59:49.810Z,919
2019-01-16T12:00:05.699Z,928
2019-01-16T12:00:21.578Z,937
2019-01-16T12:00:37.436Z,948
2019-01-16T12:00:53.320Z,944
2019-01-16T12:01:09.220Z,958
2019-01-16T12:01:25.122Z,968
2019-01-16T12:01:40.982Z,967
2019-01-16T12:01:56.948Z,971
2019-01-16T12:02:12.828Z,978
2019-01-16T12:02:28.710Z,980
2019-01-16T12:02:44.618Z,978
2019-01-16T12:03:00.512Z,974
2019-01-16T12:03:16.397Z,980
2019-01-16T12:03:32.279Z,1003
2019-01-16T12:03:48.239Z,1001
2019-01-16T12:04:04.172Z,1005
2019-01-16T13:56:11.631Z,175
2019-01-16T13:56:27.521Z,1454
2019-01-16T13:56:43.416Z,1431
2019-01-16T13:56:59.375Z,1418
2019-01-16T13:57:15.242Z,1545
2019-01-16T13:57:31.148Z,1640
2019-01-16T13:57:47.044Z,1632
2019-01-16T13:58:02.910Z,1606
2019-01-16T13:58:18.802Z,1452
2019-01-16T13:58:34.654Z,1406
2019-01-16T13:58:50.530Z,1406
2019-01-16T13:59:06.377Z,1408
2019-01-16T13:59:22.229Z,1400
2019-01-16T13:59:38.113Z,1405
2019-01-16T13:59:54.048Z,1409
2019-01-16T14:00:09.925Z,1408
2019-01-16T14:00:25.780Z,1403
2019-01-16T14:00:41.669Z,1735
2019-01-16T14:00:57.591Z,1659
2019-01-16T15:30:07.091Z,1436
2019-01-16T15:30:22.976Z,2159
2019-01-16T15:30:38.845Z,2020
2019-01-16T15:30:54.727Z,1927
2019-01-16T15:31:10.571Z,1862
2019-01-16T15:31:26.413Z,1825
2019-01-16T15:31:42.264Z,1796
2019-01-16T15:31:58.122Z,1751
2019-01-16T15:32:14.038Z,1740
2019-01-16T15:32:29.908Z,1726
2019-01-16T15:32:45.851Z,1721
2019-01-16T15:33:01.710Z,1723
2019-01-16T15:33:17.585Z,1724
2019-01-16T15:33:33.433Z,1727
2019-01-16T15:33:49.291Z,1739
2019-01-16T15:34:05.163Z,1742
2019-01-16T15:34:21.039Z,1747
2019-01-16T15:34:36.897Z,1756
2019-01-16T15:34:52.786Z,1769
2019-01-16T15:35:08.725Z,1775
2019-01-16T15:35:24.666Z,1779
2019-01-16T15:35:40.547Z,1845
2019-01-16T15:35:58.342Z,1775
2019-01-16T15:36:14.354Z,1766
2019-01-16T15:36:30.224Z,1691
2019-01-16T15:36:46.096Z,1454
2019-01-16T15:37:01.979Z,1394
2019-01-16T15:37:17.839Z,1365
2019-01-16T15:37:33.690Z,1363
2019-01-16T15:37:49.560Z,1360
2019-01-16T15:38:05.431Z,1367
2019-01-16T15:38:21.274Z,1379
2019-01-16T15:38:37.167Z,1398
2019-01-16T15:38:53.066Z,1422
2019-01-16T15:39:08.921Z,1475
2019-01-16T15:39:24.779Z,1488
2019-01-16T15:39:40.738Z,1494
2019-01-16T15:39:56.602Z,1506
2019-01-16T15:40:12.451Z,1536
2019-01-16T15:40:28.331Z,1544
2019-01-16T15:40:44.200Z,1554
2019-01-16T15:41:00.067Z,1554
2019-01-16T15:41:15.912Z,1558
2019-01-16T15:41:31.772Z,1561
2019-01-16T15:41:47.773Z,1566
2019-01-16T15:42:03.666Z,1572
2019-01-16T15:42:19.536Z,1569
2019-01-16T15:42:35.397Z,1573
2019-01-16T15:42:51.254Z,1592
2019-01-16T15:43:07.128Z,1597
2019-01-16T15:43:23.006Z,1597
2019-01-16T15:43:38.902Z,1597
2019-01-16T15:43:54.796Z,1602
2019-01-16T15:44:10.664Z,1606
2019-01-16T15:44:26.526Z,1606
2019-01-16T15:44:42.402Z,1615
2019-01-16T15:44:58.305Z,1614
2019-01-16T15:45:14.147Z,1615
2019-01-16T15:45:30.004Z,1625
2019-01-16T15:45:45.862Z,1637
2019-01-16T15:46:01.745Z,1617
2019-01-16T15:46:17.591Z,1633
2019-01-16T15:46:33.424Z,1622
2019-01-16T15:46:49.314Z,1628
2019-01-16T15:47:05.160Z,1628
2019-01-16T15:47:21.046Z,1631
2019-01-16T15:47:36.908Z,1628
2019-01-16T15:47:52.766Z,1641
2019-01-16T15:48:08.699Z,1637
2019-01-16T15:48:24.558Z,1644
2019-01-16T15:48:40.374Z,1637
2019-01-16T15:48:56.209Z,1642
2019-01-16T15:49:12.057Z,1644
2019-01-16T15:49:27.943Z,1641
2019-01-16T15:49:43.805Z,1644
2019-01-16T15:49:59.635Z,1644
2019-01-16T15:50:15.513Z,1643
2019-01-16T15:50:31.399Z,1648
2019-01-16T15:50:47.275Z,1654
2019-01-16T15:51:03.172Z,1678
2019-01-16T15:51:19.071Z,1695
2019-01-16T15:51:34.912Z,1693
2019-01-16T15:51:50.779Z,1702
2019-01-16T15:52:12.872Z,1705
2019-01-16T15:52:29.096Z,1720
2019-01-16T15:52:44.938Z,1716
2019-01-16T15:53:00.802Z,1713
2019-01-16T15:53:16.669Z,1710
2019-01-16T15:53:32.518Z,1713
2019-01-16T15:53:48.352Z,1709
2019-01-16T15:54:04.202Z,1712
2019-01-16T15:54:23.869Z,1713
2019-01-16T15:54:40.021Z,1707
2019-01-16T15:54:55.865Z,1707
2019-01-16T15:55:11.761Z,1710
2019-01-16T15:55:27.597Z,1711
2019-01-16T15:55:43.450Z,1715
2019-01-16T15:55:59.307Z,1718
2019-01-16T15:56:15.148Z,1719
2019-01-16T15:56:30.983Z,1791
2019-01-16T15:56:46.834Z,1786
2019-01-16T15:57:02.659Z,1779
2019-01-16T15:57:18.532Z,1769
2019-01-16T15:57:34.373Z,1756
2019-01-16T15:57:50.234Z,1730
2019-01-16T15:58:06.061Z,1755
2019-01-16T15:58:21.893Z,1752
2019-01-16T15:58:37.756Z,1740
2019-01-16T15:58:53.576Z,1740
2019-01-16T15:59:09.422Z,1739
2019-01-16T15:59:25.261Z,1734
2019-01-16T15:59:41.129Z,1722
2019-01-16T15:59:57.049Z,1705
2019-01-16T16:00:13.043Z,1656
2019-01-16T16:00:28.919Z,1632
2019-01-16T16:00:44.748Z,1616
2019-01-16T16:01:00.616Z,1600
2019-01-16T16:01:16.456Z,1597
2019-01-16T16:01:32.303Z,1584
2019-01-16T16:01:48.149Z,1579
2019-01-16T16:02:04.022Z,1572
2019-01-16T16:02:19.831Z,1563
2019-01-16T16:02:35.702Z,1547
2019-01-16T16:02:51.563Z,1539
2019-01-16T16:03:07.392Z,1539
2019-01-16T16:03:23.300Z,1436
2019-01-16T16:03:39.117Z,1435
2019-01-16T16:03:54.936Z,1426
2019-01-16T16:04:10.831Z,1421
2019-01-16T16:04:26.649Z,1407
2019-01-16T16:04:42.475Z,1397
2019-01-16T16:04:58.288Z,1390
2019-01-16T16:05:14.131Z,1385
2019-01-16T16:05:29.961Z,1374
2019-01-16T16:05:45.807Z,1371
2019-01-16T16:06:01.646Z,1364
2019-01-16T16:06:17.475Z,1362
2019-01-16T16:06:33.351Z,1354
2019-01-16T16:06:49.274Z,1338
2019-01-16T16:07:05.102Z,1317
2019-01-16T16:07:20.986Z,1247
2019-01-16T16:07:36.906Z,1180
2019-01-16T16:07:52.747Z,1127
2019-01-16T16:08:08.579Z,979
2019-01-16T16:08:24.421Z,970
2019-01-16T16:08:40.254Z,961
2019-01-16T16:08:56.108Z,964
2019-01-16T16:09:11.968Z,979
2019-01-16T16:09:27.800Z,979
2019-01-16T16:09:43.647Z,1068
2019-01-16T16:09:59.477Z,1090
2019-01-16T16:10:15.318Z,1101
2019-01-16T16:10:31.170Z,1110
2019-01-16T16:10:47.012Z,1114
2019-01-16T16:11:02.855Z,1120
2019-01-16T16:11:18.697Z,1127
2019-01-16T16:11:34.749Z,1136
2019-01-16T16:11:50.593Z,1185
2019-01-16T16:12:06.503Z,1191
2019-01-16T16:12:22.325Z,1200
2019-01-16T16:12:38.216Z,1203
2019-01-16T16:12:54.058Z,1206
2019-01-16T16:13:09.886Z,1209
2019-01-16T16:13:25.709Z,1205
2019-01-16T16:13:41.568Z,1215
2019-01-16T16:13:57.419Z,1220
2019-01-16T16:14:13.494Z,1222
2019-01-16T16:14:29.387Z,1229
2019-01-16T16:14:45.212Z,1239
2019-01-16T16:15:01.087Z,1257
2019-01-16T16:15:16.991Z,1259
2019-01-16T16:15:32.855Z,1268
2019-01-16T16:15:48.721Z,1274
2019-01-16T16:16:04.532Z,1271
2019-01-16T16:16:20.358Z,1274
2019-01-16T16:16:36.187Z,1275
2019-01-16T16:16:52.034Z,1280
2019-01-16T16:17:07.865Z,1282
2019-01-16T16:17:23.702Z,1285
2019-01-16T16:17:39.526Z,1289
2019-01-16T16:17:55.372Z,1296
2019-01-16T16:18:11.235Z,1297
2019-01-16T16:18:27.045Z,1304
2019-01-16T16:18:42.843Z,1304
2019-01-16T16:18:58.679Z,1301
2019-01-16T16:19:14.495Z,1308
2019-01-16T16:19:30.352Z,1307
2019-01-16T16:19:46.168Z,1307
2019-01-16T16:20:02.036Z,1313
2019-01-16T16:20:17.921Z,1314
2019-01-16T16:20:33.772Z,1322
2019-01-16T16:20:49.590Z,1335
2019-01-16T16:21:05.435Z,1342
2019-01-16T16:21:21.312Z,1347
2019-01-16T16:21:37.118Z,1350
2019-01-16T16:21:53.003Z,1352
2019-01-16T16:22:08.850Z,1356
2019-01-16T16:22:24.710Z,1366
2019-01-16T16:22:40.513Z,1370
2019-01-16T16:22:56.373Z,1371
2019-01-16T16:23:12.237Z,1374
2019-01-16T16:23:28.043Z,1383
2019-01-16T16:23:43.858Z,1392
2019-01-16T16:23:59.699Z,1395
2019-01-16T16:24:15.553Z,1393
2019-01-16T16:24:31.427Z,1395
2019-01-16T16:24:47.313Z,1400
2019-01-16T16:25:03.166Z,1402
2019-01-16T16:25:18.984Z,1408
2019-01-16T16:25:34.810Z,1445
